Time;durP1;ratioP1;P1;durP2;ratioP2;P2;SDS_P1;SDS_P2;PMS_P1;PMS_P2;Temp;Humidity;BMP_temperature;BMP_pressure;BME280_temperature;BME280_humidity;BME280_pressure;Samples;Min_cycle;Max_cycle;Signal;HPM_P1;HPM_P2
2023/12/15 00:01:11;;;;;;;;;;;;;;;;;;5076548;28;19912;-72
2023/12/15 00:03:37;;;;;;;;;;;;;;;;;;5076152;28;19944;-72
2023/12/15 00:06:03;;;;;;;;;;;;;;;;;;5076293;28;20352;-72
2023/12/15 00:08:29;;;;;;;;;;;;;;;;;;5076240;28;19908;-72
2023/12/15 00:10:55;;;;;;;;;;;;;;;;;;5076454;28;19927;-72
2023/12/15 00:13:21;;;;;;;;;;;;;;;;;;5076506;28;20261;-72
2023/12/15 00:15:47;;;;;;;;;;;;;;;;;;5076113;28;19908;-72
2023/12/15 00:18:13;;;;;;;;;;;;;;;;;;5076426;28;19962;-73
2023/12/15 00:20:39;;;;;;;;;;;;;;;;;;5076340;28;20048;-72
2023/12/15 00:23:05;;;;;;;;;;;;;;;;;;5075955;28;19919;-73
2023/12/15 00:25:31;;;;;;;;;;;;;;;;;;5076264;28;19909;-73
2023/12/15 00:27:57;;;;;;;;;;;;;;;;;;5076442;28;19908;-73
2023/12/15 00:30:23;;;;;;;;;;;;;;;;;;5075597;28;20373;-73
2023/12/15 00:32:49;;;;;;;;;;;;;;;;;;5076182;28;19920;-73
2023/12/15 00:35:15;;;;;;;;;;;;;;;;;;5076328;28;19913;-72
2023/12/15 00:37:41;;;;;;;;;;;;;;;;;;5075899;28;20361;-73
2023/12/15 00:40:07;;;;;;;;;;;;;;;;;;5075979;28;19909;-73
2023/12/15 00:42:33;;;;;;;;;;;;;;;;;;5076343;28;19909;-72
2023/12/15 00:44:59;;;;;;;;;;;;;;;;;;5075536;28;19908;-73
2023/12/15 00:47:24;;;;;;;;;;;;;;;;;;5074575;28;19918;-72
2023/12/15 00:49:50;;;;;;;;;;;;;;;;;;5074534;28;19908;-73
2023/12/15 00:52:16;;;;;;;;;;;;;;;;;;5075474;28;19917;-74
2023/12/15 00:54:42;;;;;;;;;;;;;;;;;;5074447;28;19908;-72
2023/12/15 00:57:08;;;;;;;;;;;;;;;;;;5075119;28;19915;-72
2023/12/15 00:59:34;;;;;;;;;;;;;;;;;;5073964;28;19912;-72
2023/12/15 01:02:00;;;;;;;;;;;;;;;;;;5075600;28;19912;-72
2023/12/15 01:04:26;;;;;;;;;;;;;;;;;;5075554;28;19931;-72
2023/12/15 01:06:52;;;;;;;;;;;;;;;;;;5075130;28;19954;-72
2023/12/15 01:09:18;;;;;;;;;;;;;;;;;;5075508;28;20355;-73
2023/12/15 01:11:44;;;;;;;;;;;;;;;;;;5074933;28;19917;-72
2023/12/15 01:14:10;;;;;;;;;;;;;;;;;;5074083;28;19916;-72
2023/12/15 01:16:36;;;;;;;;;;;;;;;;;;5075280;28;19954;-72
2023/12/15 01:19:02;;;;;;;;;;;;;;;;;;5074836;28;20328;-72
2023/12/15 01:21:28;;;;;;;;;;;;;;;;;;5075196;28;19909;-72
2023/12/15 01:23:54;;;;;;;;;;;;;;;;;;5073853;28;19916;-72
2023/12/15 01:26:20;;;;;;;;;;;;;;;;;;5074746;28;19909;-73
2023/12/15 01:28:46;;;;;;;;;;;;;;;;;;5074793;28;20003;-72
2023/12/15 01:31:13;;;;;;;;;;;;;;;;;;5075063;28;19923;-72
2023/12/15 01:33:40;;;;;;;;;;;;;;;;;;5074822;28;20280;-72
2023/12/15 01:36:06;;;;;;;;;;;;;;;;;;5075008;28;19909;-72
2023/12/15 01:38:32;;;;;;;;;;;;;;;;;;5073603;28;19915;-72
2023/12/15 01:40:58;;;;;;;;;;;;;;;;;;5073103;28;20494;-72
2023/12/15 01:43:24;;;;;;;;;;;;;;;;;;5073494;28;19931;-72
2023/12/15 01:45:50;;;;;;;;;;;;;;;;;;5073456;28;19909;-72
2023/12/15 01:48:16;;;;;;;;;;;;;;;;;;5074313;28;19912;-72
2023/12/15 01:50:41;;;;;;;;;;;;;;;;;;5074541;28;19935;-72
2023/12/15 01:53:08;;;;;;;;;;;;;;;;;;5074778;28;19909;-72
2023/12/15 01:55:34;;;;;;;;;;;;;;;;;;5074195;28;20353;-72
2023/12/15 01:58:00;;;;;;;;;;;;;;;;;;5074501;28;19909;-72
2023/12/15 02:00:26;;;;;;;;;;;;;;;;;;5074396;28;19908;-73
2023/12/15 02:02:52;;;;;;;;;;;;;;;;;;5074024;28;20376;-72
2023/12/15 02:05:17;;;;;;;;;;;;;;;;;;5074341;28;19909;-72
2023/12/15 02:07:43;;;;;;;;;;;;;;;;;;5073569;28;19909;-72
2023/12/15 02:10:09;;;;;;;;;;;;;;;;;;5073841;28;19919;-72
2023/12/15 02:12:35;;;;;;;;;;;;;;;;;;5072999;28;19916;-72
2023/12/15 02:15:01;;;;;;;;;;;;;;;;;;5073777;28;19916;-73
2023/12/15 02:17:27;;;;;;;;;;;;;;;;;;5074368;28;20369;-72
2023/12/15 02:19:53;;;;;;;;;;;;;;;;;;5074445;28;19908;-72
2023/12/15 02:22:19;;;;;;;;;;;;;;;;;;5074072;28;19909;-72
2023/12/15 02:24:45;;;;;;;;;;;;;;;;;;5074155;28;19912;-72
2023/12/15 02:27:11;;;;;;;;;;;;;;;;;;5074126;28;19952;-72
2023/12/15 02:29:37;;;;;;;;;;;;;;;;;;5073446;28;19927;-72
2023/12/15 02:32:03;;;;;;;;;;;;;;;;;;5072645;28;20447;-73
2023/12/15 02:34:29;;;;;;;;;;;;;;;;;;5073966;28;19908;-73
2023/12/15 02:36:55;;;;;;;;;;;;;;;;;;5073602;28;20391;-72
2023/12/15 02:39:21;;;;;;;;;;;;;;;;;;5073938;28;19909;-72
2023/12/15 02:41:47;;;;;;;;;;;;;;;;;;5073852;28;19916;-72
2023/12/15 02:44:13;;;;;;;;;;;;;;;;;;5073461;28;19944;-72
2023/12/15 02:46:39;;;;;;;;;;;;;;;;;;5074113;28;19919;-72
2023/12/15 02:49:05;;;;;;;;;;;;;;;;;;5073856;28;20004;-72
2023/12/15 02:51:31;;;;;;;;;;;;;;;;;;5073279;28;20315;-72
2023/12/15 02:53:57;;;;;;;;;;;;;;;;;;5073782;28;19958;-72
2023/12/15 02:56:23;;;;;;;;;;;;;;;;;;5073896;28;19915;-73
2023/12/15 02:58:49;;;;;;;;;;;;;;;;;;5073353;28;19947;-73
2023/12/15 03:01:14;;;;;;;;;;;;;;;;;;5074347;28;20383;-74
2023/12/15 03:03:40;;;;;;;;;;;;;;;;;;5073774;28;19952;-73
2023/12/15 03:06:06;;;;;;;;;;;;;;;;;;5070820;28;19909;-74
2023/12/15 03:08:32;;;;;;;;;;;;;;;;;;5073639;28;19908;-73
2023/12/15 03:10:58;;;;;;;;;;;;;;;;;;5073298;28;20340;-72
2023/12/15 03:13:24;;;;;;;;;;;;;;;;;;5073274;28;19916;-72
2023/12/15 03:15:50;;;;;;;;;;;;;;;;;;5073562;28;19951;-72
2023/12/15 03:18:16;;;;;;;;;;;;;;;;;;5073441;28;19916;-73
2023/12/15 03:20:42;;;;;;;;;;;;;;;;;;5077113;28;19916;-73
2023/12/15 03:23:08;;;;;;;;;;;;;;;;;;5077556;28;19909;-72
2023/12/15 03:25:34;;;;;;;;;;;;;;;;;;5077066;28;19916;-72
2023/12/15 03:28:00;;;;;;;;;;;;;;;;;;5077383;28;20279;-74
2023/12/15 03:30:26;;;;;;;;;;;;;;;;;;5075759;28;19920;-73
2023/12/15 03:32:52;;;;;;;;;;;;;;;;;;5077054;28;19966;-73
2023/12/15 03:35:18;;;;;;;;;;;;;;;;;;5075982;28;19909;-73
2023/12/15 03:37:44;;;;;;;;;;;;;;;;;;5077198;28;20387;-73
2023/12/15 03:40:10;;;;;;;;;;;;;;;;;;5076684;28;19970;-73
2023/12/15 03:42:36;;;;;;;;;;;;;;;;;;5077112;28;19915;-73
2023/12/15 03:45:02;;;;;;;;;;;;;;;;;;5077038;28;19912;-73
2023/12/15 03:47:28;;;;;;;;;;;;;;;;;;5076821;28;19974;-73
2023/12/15 03:49:53;;;;;;;;;;;;;;;;;;5077025;28;19908;-73
2023/12/15 03:52:19;;;;;;;;;;;;;;;;;;5076881;28;19916;-72
2023/12/15 03:54:45;;;;;;;;;;;;;;;;;;5076459;28;19915;-72
2023/12/15 03:57:11;;;;;;;;;;;;;;;;;;5076895;28;19991;-73
2023/12/15 03:59:40;;;;;;;;;;;;;;;;;;5076814;28;20391;-73
2023/12/15 04:02:11;;;;;;;;;;;;;;;;;;5076265;28;19954;-73
2023/12/15 04:04:37;;;;;;;;;;;;;;;;;;5075376;28;19915;-73
2023/12/15 04:07:03;;;;;;;;;;;;;;;;;;5077228;28;20007;-73
2023/12/15 04:09:29;;;;;;;;;;;;;;;;;;5076181;28;19993;-73
2023/12/15 04:11:55;;;;;;;;;;;;;;;;;;5076450;28;19924;-73
2023/12/15 04:14:21;;;;;;;;;;;;;;;;;;5076664;28;19909;-73
2023/12/15 04:16:47;;;;;;;;;;;;;;;;;;5076076;28;19916;-73
2023/12/15 04:19:13;;;;;;;;;;;;;;;;;;5076413;28;19908;-73
2023/12/15 04:21:39;;;;;;;;;;;;;;;;;;5075974;28;19916;-73
2023/12/15 04:24:06;;;;;;;;;;;;;;;;;;5076359;28;20003;-73
2023/12/15 04:26:32;;;;;;;;;;;;;;;;;;5076268;28;20295;-73
2023/12/15 04:28:58;;;;;;;;;;;;;;;;;;5075683;28;19917;-73
2023/12/15 04:31:24;;;;;;;;;;;;;;;;;;5075173;28;19927;-73
2023/12/15 04:33:50;;;;;;;;;;;;;;;;;;5076194;28;19908;-73
2023/12/15 04:36:16;;;;;;;;;;;;;;;;;;5075915;28;20284;-73
2023/12/15 04:38:42;;;;;;;;;;;;;;;;;;5076086;28;20339;-73
2023/12/15 04:41:08;;;;;;;;;;;;;;;;;;5075985;28;19931;-73
2023/12/15 04:43:34;;;;;;;;;;;;;;;;;;5075753;28;19908;-73
2023/12/15 04:46:00;;;;;;;;;;;;;;;;;;5075968;28;19912;-73
2023/12/15 04:48:26;;;;;;;;;;;;;;;;;;5075840;28;19954;-73
2023/12/15 04:50:52;;;;;;;;;;;;;;;;;;5075436;28;19918;-73
2023/12/15 04:53:18;;;;;;;;;;;;;;;;;;5076167;28;19920;-74
2023/12/15 04:55:44;;;;;;;;;;;;;;;;;;5075747;28;19908;-73
2023/12/15 04:58:10;;;;;;;;;;;;;;;;;;5075309;28;19908;-73
2023/12/15 05:00:36;;;;;;;;;;;;;;;;;;5075591;28;19908;-73
2023/12/15 05:03:02;;;;;;;;;;;;;;;;;;5075575;28;19916;-73
2023/12/15 05:05:27;;;;;;;;;;;;;;;;;;5075150;28;19909;-72
2023/12/15 05:07:53;;;;;;;;;;;;;;;;;;5075465;28;19915;-72
2023/12/15 05:10:19;;;;;;;;;;;;;;;;;;5075604;28;19908;-72
2023/12/15 05:12:45;;;;;;;;;;;;;;;;;;5075031;28;20011;-74
2023/12/15 05:15:11;;;;;;;;;;;;;;;;;;5075619;28;19909;-73
2023/12/15 05:17:37;;;;;;;;;;;;;;;;;;5075354;28;20383;-73
2023/12/15 05:20:03;;;;;;;;;;;;;;;;;;5074896;28;19912;-73
2023/12/15 05:22:29;;;;;;;;;;;;;;;;;;5075069;28;20335;-73
2023/12/15 05:24:55;;;;;;;;;;;;;;;;;;5073454;28;19919;-73
2023/12/15 05:27:21;;;;;;;;;;;;;;;;;;5075326;28;20026;-73
2023/12/15 05:29:47;;;;;;;;;;;;;;;;;;5072951;28;19971;-73
2023/12/15 05:32:13;;;;;;;;;;;;;;;;;;5074746;28;19924;-72
2023/12/15 05:34:39;;;;;;;;;;;;;;;;;;5075133;28;19961;-71
2023/12/15 05:37:05;;;;;;;;;;;;;;;;;;5074947;28;19916;-71
2023/12/15 05:39:31;;;;;;;;;;;;;;;;;;5073992;28;19909;-73
2023/12/15 05:41:57;;;;;;;;;;;;;;;;;;5073841;28;19909;-74
2023/12/15 05:44:23;;;;;;;;;;;;;;;;;;5074423;28;19932;-73
2023/12/15 05:46:49;;;;;;;;;;;;;;;;;;5072267;28;19909;-73
2023/12/15 05:49:15;;;;;;;;;;;;;;;;;;5073066;28;19912;-73
2023/12/15 05:51:41;;;;;;;;;;;;;;;;;;5072982;28;19916;-73
2023/12/15 05:54:07;;;;;;;;;;;;;;;;;;5073422;28;19912;-73
2023/12/15 05:56:33;;;;;;;;;;;;;;;;;;5073911;28;19927;-73
2023/12/15 05:58:59;;;;;;;;;;;;;;;;;;5074085;28;19995;-73
2023/12/15 06:01:25;;;;;;;;;;;;;;;;;;5074045;28;19916;-73
2023/12/15 06:03:52;;;;;;;;;;;;;;;;;;5074422;28;20414;-73
2023/12/15 06:06:18;;;;;;;;;;;;;;;;;;5074316;28;20326;-73
2023/12/15 06:08:44;;;;;;;;;;;;;;;;;;5073924;28;19908;-73
2023/12/15 06:11:10;;;;;;;;;;;;;;;;;;5074631;28;20420;-72
2023/12/15 06:13:36;;;;;;;;;;;;;;;;;;5074214;28;20281;-73
2023/12/15 06:16:02;;;;;;;;;;;;;;;;;;5073740;28;19909;-73
2023/12/15 06:18:28;;;;;;;;;;;;;;;;;;5067724;28;19965;-74
2023/12/15 06:20:54;;;;;;;;;;;;;;;;;;5071269;28;20003;-71
2023/12/15 06:23:21;;;;;;;;;;;;;;;;;;5064333;28;20035;-72
2023/12/15 06:25:48;;;;;;;;;;;;;;;;;;5064371;28;19931;-72
2023/12/15 06:28:14;;;;;;;;;;;;;;;;;;5069540;28;19955;-73
2023/12/15 06:30:41;;;;;;;;;;;;;;;;;;5070068;28;19952;-70
2023/12/15 06:33:08;;;;;;;;;;;;;;;;;;5065966;28;19927;-68
2023/12/15 06:35:34;;;;;;;;;;;;;;;;;;5058956;28;20396;-70
2023/12/15 06:38:00;;;;;;;;;;;;;;;;;;5052032;28;19915;-67
2023/12/15 06:40:26;;;;;;;;;;;;;;;;;;5066756;28;19919;-68
2023/12/15 06:42:53;;;;;;;;;;;;;;;;;;5055303;28;19916;-67
2023/12/15 06:45:19;;;;;;;;;;;;;;;;;;5049733;28;20326;-69
2023/12/15 06:47:44;;;;;;;;;;;;;;;;;;5064433;28;19913;-68
2023/12/15 06:50:10;;;;;;;;;;;;;;;;;;5075420;28;19959;-67
2023/12/15 06:52:36;;;;;;;;;;;;;;;;;;5078040;28;19924;-69
2023/12/15 06:55:02;;;;;;;;;;;;;;;;;;5069354;28;19912;-67
2023/12/15 06:57:28;;;;;;;;;;;;;;;;;;5068826;28;19912;-68
2023/12/15 06:59:54;;;;;;;;;;;;;;;;;;5056154;28;19913;-68
2023/12/15 07:02:20;;;;;;;;;;;;;;;;;;5064589;28;19913;-69
2023/12/15 07:04:46;;;;;;;;;;;;;;;;;;5068683;28;19913;-67
2023/12/15 07:07:12;;;;;;;;;;;;;;;;;;5069400;28;20356;-68
2023/12/15 07:09:38;;;;;;;;;;;;;;;;;;5070880;28;20387;-68
2023/12/15 07:12:08;;;;;;;;;;;;;;;;;;5071261;28;19920;-67
2023/12/15 07:14:34;;;;;;;;;;;;;;;;;;5068083;28;19908;-67
2023/12/15 07:17:00;;;;;;;;;;;;;;;;;;5062426;28;19920;-69
2023/12/15 07:19:26;;;;;;;;;;;;;;;;;;5057759;28;20335;-70
2023/12/15 07:21:52;;;;;;;;;;;;;;;;;;5067163;28;20142;-69
2023/12/15 07:24:18;;;;;;;;;;;;;;;;;;5066028;28;19963;-70
2023/12/15 07:26:44;;;;;;;;;;;;;;;;;;5067919;28;19909;-70
2023/12/15 07:29:10;;;;;;;;;;;;;;;;;;5066865;28;19985;-69
2023/12/15 07:31:36;;;;;;;;;;;;;;;;;;5067139;28;19923;-68
2023/12/15 07:34:02;;;;;;;;;;;;;;;;;;5063528;28;20015;-68
2023/12/15 07:36:28;;;;;;;;;;;;;;;;;;5065007;28;20003;-68
2023/12/15 07:38:54;;;;;;;;;;;;;;;;;;5062680;28;19912;-68
2023/12/15 07:41:20;;;;;;;;;;;;;;;;;;5065517;28;20003;-69
2023/12/15 07:43:46;;;;;;;;;;;;;;;;;;5066614;28;19916;-70
2023/12/15 07:46:12;;;;;;;;;;;;;;;;;;5059458;28;19923;-69
2023/12/15 07:48:38;;;;;;;;;;;;;;;;;;5065052;28;19913;-67
2023/12/15 07:51:04;;;;;;;;;;;;;;;;;;5068649;28;19920;-67
2023/12/15 07:53:30;;;;;;;;;;;;;;;;;;5055699;28;20580;-69
2023/12/15 07:55:56;;;;;;;;;;;;;;;;;;5060749;28;19920;-70
2023/12/15 07:58:23;;;;;;;;;;;;;;;;;;5067119;28;20011;-69
2023/12/15 08:00:51;;;;;;;;;;;;;;;;;;5065675;28;20049;-69
2023/12/15 08:03:17;;;;;;;;;;;;;;;;;;5065857;28;20507;-71
2023/12/15 08:05:43;;;;;;;;;;;;;;;;;;5061806;28;19913;-68
2023/12/15 08:08:09;;;;;;;;;;;;;;;;;;5062764;28;19928;-70
2023/12/15 08:10:35;;;;;;;;;;;;;;;;;;5062979;28;19923;-71
2023/12/15 08:13:01;;;;;;;;;;;;;;;;;;5060900;28;20459;-68
2023/12/15 08:15:27;;;;;;;;;;;;;;;;;;5066168;28;19912;-71
2023/12/15 08:17:53;;;;;;;;;;;;;;;;;;5067878;28;19909;-69
2023/12/15 08:20:19;;;;;;;;;;;;;;;;;;5067488;28;19913;-69
2023/12/15 08:22:45;;;;;;;;;;;;;;;;;;5062978;28;19923;-68
2023/12/15 08:25:11;;;;;;;;;;;;;;;;;;5069721;28;19944;-69
2023/12/15 08:27:39;;;;;;;;;;;;;;;;;;5054187;28;19917;-69
2023/12/15 08:30:05;;;;;;;;;;;;;;;;;;5060957;28;20027;-69
2023/12/15 08:32:31;;;;;;;;;;;;;;;;;;5068089;28;20400;-70
2023/12/15 08:34:57;;;;;;;;;;;;;;;;;;5065827;28;19969;-69
2023/12/15 08:37:24;;;;;;;;;;;;;;;;;;5066093;28;19931;-70
2023/12/15 08:39:50;;;;;;;;;;;;;;;;;;5071527;28;20002;-71
2023/12/15 08:42:16;;;;;;;;;;;;;;;;;;5071996;28;20487;-71
2023/12/15 08:44:43;;;;;;;;;;;;;;;;;;5073035;28;20369;-71
2023/12/15 08:47:09;;;;;;;;;;;;;;;;;;5072348;28;19916;-68
2023/12/15 08:49:35;;;;;;;;;;;;;;;;;;5071831;28;19923;-69
2023/12/15 08:52:01;;;;;;;;;;;;;;;;;;5074041;28;19920;-69
2023/12/15 08:54:28;;;;;;;;;;;;;;;;;;5074567;28;19962;-68
2023/12/15 08:56:54;;;;;;;;;;;;;;;;;;5070135;28;19919;-69
2023/12/15 08:59:20;;;;;;;;;;;;;;;;;;5061822;28;19999;-68
2023/12/15 09:01:46;;;;;;;;;;;;;;;;;;5068783;28;20384;-67
2023/12/15 09:04:12;;;;;;;;;;;;;;;;;;5065597;28;19920;-69
2023/12/15 09:06:38;;;;;;;;;;;;;;;;;;5073707;28;19912;-66
2023/12/15 09:09:04;;;;;;;;;;;;;;;;;;5078537;28;19978;-66
2023/12/15 09:11:30;;;;;;;;;;;;;;;;;;5066558;28;20331;-67
2023/12/15 09:13:56;;;;;;;;;;;;;;;;;;5067627;28;20204;-66
2023/12/15 09:16:22;;;;;;;;;;;;;;;;;;5078992;28;19912;-68
2023/12/15 09:18:48;;;;;;;;;;;;;;;;;;5068076;28;20391;-67
2023/12/15 09:21:14;;;;;;;;;;;;;;;;;;5073682;28;19931;-69
2023/12/15 09:23:40;;;;;;;;;;;;;;;;;;5065180;28;19913;-68
2023/12/15 09:26:06;;;;;;;;;;;;;;;;;;5067625;28;20346;-70
2023/12/15 09:28:32;;;;;;;;;;;;;;;;;;5073637;28;19912;-70
2023/12/15 09:30:58;;;;;;;;;;;;;;;;;;5068406;28;19921;-69
2023/12/15 09:33:24;;;;;;;;;;;;;;;;;;5069678;28;19917;-69
2023/12/15 09:35:53;;;;;;;;;;;;;;;;;;5064196;28;19916;-68
2023/12/15 09:38:20;;;;;;;;;;;;;;;;;;5064678;28;19913;-70
2023/12/15 09:40:46;;;;;;;;;;;;;;;;;;5070126;28;20284;-69
2023/12/15 09:43:12;;;;;;;;;;;;;;;;;;5068782;28;19913;-70
2023/12/15 09:45:38;;;;;;;;;;;;;;;;;;5067964;28;19916;-69
2023/12/15 09:48:04;;;;;;;;;;;;;;;;;;5057092;28;20090;-70
2023/12/15 09:50:30;;;;;;;;;;;;;;;;;;5065536;28;20003;-69
2023/12/15 09:52:59;;;;;;;;;;;;;;;;;;5060855;28;19913;-68
2023/12/15 09:55:26;;;;;;;;;;;;;;;;;;5092356;27;19970;-69
2023/12/15 09:57:52;;;;;;;;;;;;;;;;;;5054813;28;20493;-69
2023/12/15 10:00:18;;;;;;;;;;;;;;;;;;5063379;28;19954;-70
2023/12/15 10:02:44;;;;;;;;;;;;;;;;;;5065297;28;20399;-69
2023/12/15 10:05:11;;;;;;;;;;;;;;;;;;5065043;28;19920;-68
2023/12/15 10:07:37;;;;;;;;;;;;;;;;;;5059949;28;19912;-69
2023/12/15 10:10:03;;;;;;;;;;;;;;;;;;5065594;28;20345;-71
2023/12/15 10:12:30;;;;;;;;;;;;;;;;;;5066825;28;19932;-70
2023/12/15 10:14:56;;;;;;;;;;;;;;;;;;5059442;28;19920;-69
2023/12/15 10:17:22;;;;;;;;;;;;;;;;;;5068297;28;19962;-70
2023/12/15 10:19:48;;;;;;;;;;;;;;;;;;5059994;28;19917;-67
2023/12/15 10:22:13;;;;;;;;;;;;;;;;;;5053990;28;19995;-69
2023/12/15 10:24:39;;;;;;;;;;;;;;;;;;5069589;28;19954;-67
2023/12/15 10:27:07;;;;;;;;;;;;;;;;;;5064619;28;20296;-67
2023/12/15 10:29:33;;;;;;;;;;;;;;;;;;5063253;28;19925;-70
2023/12/15 10:31:59;;;;;;;;;;;;;;;;;;5066578;28;19986;-70
2023/12/15 10:34:25;;;;;;;;;;;;;;;;;;5068487;28;19917;-70
2023/12/15 10:36:51;;;;;;;;;;;;;;;;;;5065084;28;20593;-69
2023/12/15 10:39:17;;;;;;;;;;;;;;;;;;5066189;28;19942;-68
2023/12/15 10:41:43;;;;;;;;;;;;;;;;;;5080407;28;19912;-69
2023/12/15 10:44:09;;;;;;;;;;;;;;;;;;5079545;28;19939;-68
2023/12/15 10:46:35;;;;;;;;;;;;;;;;;;5068228;28;19923;-69
2023/12/15 10:49:01;;;;;;;;;;;;;;;;;;5065073;28;20391;-68
2023/12/15 10:51:27;;;;;;;;;;;;;;;;;;5082713;28;19920;-68
2023/12/15 10:53:53;;;;;;;;;;;;;;;;;;5073952;28;19920;-67
2023/12/15 10:56:19;;;;;;;;;;;;;;;;;;5064908;28;19917;-67
2023/12/15 10:58:45;;;;;;;;;;;;;;;;;;5064996;28;19941;-68
2023/12/15 11:01:11;;;;;;;;;;;;;;;;;;5070299;28;19917;-68
2023/12/15 11:03:37;;;;;;;;;;;;;;;;;;5075342;28;19987;-68
2023/12/15 11:06:03;;;;;;;;;;;;;;;;;;5083261;28;19913;-69
2023/12/15 11:08:29;;;;;;;;;;;;;;;;;;5069687;28;20015;-68
2023/12/15 11:10:55;;;;;;;;;;;;;;;;;;5066579;28;19939;-68
2023/12/15 11:13:21;;;;;;;;;;;;;;;;;;5078556;28;20026;-68
2023/12/15 11:15:47;;;;;;;;;;;;;;;;;;5082550;28;19912;-68
2023/12/15 11:18:13;;;;;;;;;;;;;;;;;;5060161;28;19923;-67
2023/12/15 11:20:39;;;;;;;;;;;;;;;;;;5066306;28;19918;-68
2023/12/15 11:23:05;;;;;;;;;;;;;;;;;;5068552;28;20292;-70
2023/12/15 11:25:31;;;;;;;;;;;;;;;;;;5070000;28;19916;-69
2023/12/15 11:27:57;;;;;;;;;;;;;;;;;;5075380;28;19913;-70
2023/12/15 11:30:23;;;;;;;;;;;;;;;;;;5067386;28;19932;-69
2023/12/15 11:32:49;;;;;;;;;;;;;;;;;;5070917;28;20369;-69
2023/12/15 11:35:15;;;;;;;;;;;;;;;;;;5084942;28;19912;-70
2023/12/15 11:37:41;;;;;;;;;;;;;;;;;;5088490;28;20391;-70
2023/12/15 11:40:07;;;;;;;;;;;;;;;;;;5086857;28;19908;-70
2023/12/15 11:42:33;;;;;;;;;;;;;;;;;;5084665;28;20006;-69
2023/12/15 11:45:00;;;;;;;;;;;;;;;;;;5069322;28;19978;-69
2023/12/15 11:47:27;;;;;;;;;;;;;;;;;;5074815;28;19913;-69
2023/12/15 11:49:52;;;;;;;;;;;;;;;;;;5072200;28;19912;-68
2023/12/15 11:52:18;;;;;;;;;;;;;;;;;;5072797;28;20407;-68
2023/12/15 11:54:44;;;;;;;;;;;;;;;;;;5074538;28;19935;-68
2023/12/15 11:57:10;;;;;;;;;;;;;;;;;;5066501;28;19928;-68
2023/12/15 11:59:36;;;;;;;;;;;;;;;;;;5072456;28;19955;-69
2023/12/15 12:02:02;;;;;;;;;;;;;;;;;;5075175;28;20407;-69
2023/12/15 12:04:28;;;;;;;;;;;;;;;;;;5078952;28;19916;-68
2023/12/15 12:06:55;;;;;;;;;;;;;;;;;;5072531;28;19922;-67
2023/12/15 12:09:22;;;;;;;;;;;;;;;;;;5069119;28;19916;-67
2023/12/15 12:11:48;;;;;;;;;;;;;;;;;;5072915;28;20348;-67
2023/12/15 12:14:14;;;;;;;;;;;;;;;;;;5072248;28;20004;-68
2023/12/15 12:16:40;;;;;;;;;;;;;;;;;;5072791;28;19912;-69
2023/12/15 12:19:06;;;;;;;;;;;;;;;;;;5071046;28;19919;-68
2023/12/15 12:21:32;;;;;;;;;;;;;;;;;;5069803;28;19919;-68
2023/12/15 12:23:59;;;;;;;;;;;;;;;;;;5073559;28;19913;-66
2023/12/15 12:26:26;;;;;;;;;;;;;;;;;;5072613;28;20380;-67
2023/12/15 12:28:53;;;;;;;;;;;;;;;;;;5071214;28;19935;-68
2023/12/15 12:31:19;;;;;;;;;;;;;;;;;;5074222;28;19986;-68
2023/12/15 12:33:45;;;;;;;;;;;;;;;;;;5074918;28;20365;-68
2023/12/15 12:36:14;;;;;;;;;;;;;;;;;;5073796;28;19919;-68
2023/12/15 12:38:40;;;;;;;;;;;;;;;;;;5073065;28;19913;-68
2023/12/15 12:41:06;;;;;;;;;;;;;;;;;;5072559;28;20378;-67
2023/12/15 12:43:32;;;;;;;;;;;;;;;;;;5074209;28;19915;-68
2023/12/15 12:45:58;;;;;;;;;;;;;;;;;;5073305;28;19999;-67
2023/12/15 12:48:24;;;;;;;;;;;;;;;;;;5073827;28;19966;-68
2023/12/15 12:50:50;;;;;;;;;;;;;;;;;;5074423;28;19909;-67
2023/12/15 12:53:16;;;;;;;;;;;;;;;;;;5073960;28;19913;-66
2023/12/15 12:55:42;;;;;;;;;;;;;;;;;;5074795;28;19916;-66
2023/12/15 12:58:08;;;;;;;;;;;;;;;;;;5074739;28;19912;-67
2023/12/15 13:00:34;;;;;;;;;;;;;;;;;;5075126;28;19909;-67
2023/12/15 13:03:00;;;;;;;;;;;;;;;;;;5073266;28;20292;-66
2023/12/15 13:05:26;;;;;;;;;;;;;;;;;;5074147;28;19919;-67
2023/12/15 13:07:52;;;;;;;;;;;;;;;;;;5074376;28;19913;-67
2023/12/15 13:10:18;;;;;;;;;;;;;;;;;;5074596;28;20001;-67
2023/12/15 13:12:44;;;;;;;;;;;;;;;;;;5074721;28;20448;-69
2023/12/15 13:15:11;;;;;;;;;;;;;;;;;;5072557;28;19923;-67
2023/12/15 13:17:36;;;;;;;;;;;;;;;;;;5074332;28;19912;-69
2023/12/15 13:20:02;;;;;;;;;;;;;;;;;;5074734;28;19923;-68
2023/12/15 13:22:28;;;;;;;;;;;;;;;;;;5074742;28;19999;-69
2023/12/15 13:24:54;;;;;;;;;;;;;;;;;;5082728;28;19919;-68
2023/12/15 13:27:20;;;;;;;;;;;;;;;;;;5094963;28;19912;-69
2023/12/15 13:29:47;;;;;;;;;;;;;;;;;;5093479;28;19969;-69
2023/12/15 13:32:13;;;;;;;;;;;;;;;;;;5072845;28;19927;-70
2023/12/15 13:34:39;;;;;;;;;;;;;;;;;;5072890;28;19914;-69
2023/12/15 13:37:06;;;;;;;;;;;;;;;;;;5073720;28;20007;-69
2023/12/15 13:39:32;;;;;;;;;;;;;;;;;;5090252;28;20380;-70
2023/12/15 13:41:58;;;;;;;;;;;;;;;;;;5093571;28;20049;-71
2023/12/15 13:44:25;;;;;;;;;;;;;;;;;;5093980;28;20276;-72
2023/12/15 13:46:52;;;;;;;;;;;;;;;;;;5094329;28;19934;-71
2023/12/15 13:49:18;;;;;;;;;;;;;;;;;;5090179;28;19908;-70
2023/12/15 13:51:44;;;;;;;;;;;;;;;;;;5072403;28;19917;-71
2023/12/15 13:54:10;;;;;;;;;;;;;;;;;;5073313;28;19916;-70
2023/12/15 13:56:36;;;;;;;;;;;;;;;;;;5074624;28;19973;-70
2023/12/15 13:59:02;;;;;;;;;;;;;;;;;;5073115;28;20391;-71
2023/12/15 14:01:28;;;;;;;;;;;;;;;;;;5074251;28;20413;-71
2023/12/15 14:03:54;;;;;;;;;;;;;;;;;;5074311;28;19912;-71
2023/12/15 14:06:20;;;;;;;;;;;;;;;;;;5071481;28;19909;-71
2023/12/15 14:08:46;;;;;;;;;;;;;;;;;;5074513;28;20352;-72
2023/12/15 14:11:12;;;;;;;;;;;;;;;;;;5073272;28;20003;-71
2023/12/15 14:13:38;;;;;;;;;;;;;;;;;;5073373;28;19958;-71
2023/12/15 14:16:04;;;;;;;;;;;;;;;;;;5072578;28;19908;-70
2023/12/15 14:18:30;;;;;;;;;;;;;;;;;;5073107;28;20003;-70
2023/12/15 14:20:56;;;;;;;;;;;;;;;;;;5071640;28;20408;-71
2023/12/15 14:23:22;;;;;;;;;;;;;;;;;;5072043;28;19908;-70
2023/12/15 14:25:48;;;;;;;;;;;;;;;;;;5071936;28;19908;-71
2023/12/15 14:28:14;;;;;;;;;;;;;;;;;;5071533;28;19919;-70
2023/12/15 14:30:40;;;;;;;;;;;;;;;;;;5072720;28;19913;-70
2023/12/15 14:33:07;;;;;;;;;;;;;;;;;;5072035;28;20368;-71
2023/12/15 14:35:34;;;;;;;;;;;;;;;;;;5073078;28;20219;-71
2023/12/15 14:38:00;;;;;;;;;;;;;;;;;;5072637;28;20288;-71
2023/12/15 14:40:26;;;;;;;;;;;;;;;;;;5073907;28;20323;-71
2023/12/15 14:42:52;;;;;;;;;;;;;;;;;;5073466;28;19938;-71
2023/12/15 14:45:18;;;;;;;;;;;;;;;;;;5073877;28;19962;-70
2023/12/15 14:47:44;;;;;;;;;;;;;;;;;;5073330;28;19909;-71
2023/12/15 14:50:10;;;;;;;;;;;;;;;;;;5073780;28;19904;-71
2023/12/15 14:52:36;;;;;;;;;;;;;;;;;;5073622;28;19923;-71
2023/12/15 14:55:02;;;;;;;;;;;;;;;;;;5073456;28;20364;-71
2023/12/15 14:57:28;;;;;;;;;;;;;;;;;;5073688;28;19969;-71
2023/12/15 14:59:54;;;;;;;;;;;;;;;;;;5073958;28;19909;-72
2023/12/15 15:02:20;;;;;;;;;;;;;;;;;;5073246;28;19913;-71
2023/12/15 15:04:47;;;;;;;;;;;;;;;;;;5073843;28;19908;-72
2023/12/15 15:07:13;;;;;;;;;;;;;;;;;;5073436;28;19908;-72
2023/12/15 15:09:40;;;;;;;;;;;;;;;;;;5073217;28;20082;-72
2023/12/15 15:12:06;;;;;;;;;;;;;;;;;;5073822;28;19920;-71
2023/12/15 15:14:33;;;;;;;;;;;;;;;;;;5073589;28;19977;-72
2023/12/15 15:16:59;;;;;;;;;;;;;;;;;;5077000;28;19913;-71
2023/12/15 15:19:26;;;;;;;;;;;;;;;;;;5077610;28;19912;-71
2023/12/15 15:21:52;;;;;;;;;;;;;;;;;;5076250;28;19915;-72
2023/12/15 15:24:18;;;;;;;;;;;;;;;;;;5075796;28;19909;-72
2023/12/15 15:26:44;;;;;;;;;;;;;;;;;;5076292;28;20249;-72
2023/12/15 15:29:10;;;;;;;;;;;;;;;;;;5075898;28;19924;-71
2023/12/15 15:31:37;;;;;;;;;;;;;;;;;;5077075;28;20357;-71
2023/12/15 15:34:03;;;;;;;;;;;;;;;;;;5077368;28;19908;-72
2023/12/15 15:36:29;;;;;;;;;;;;;;;;;;5077214;28;20397;-71
2023/12/15 15:38:55;;;;;;;;;;;;;;;;;;5076843;28;19935;-72
2023/12/15 15:41:27;;;;;;;;;;;;;;;;;;5077162;28;20006;-72
2023/12/15 15:43:53;;;;;;;;;;;;;;;;;;5076758;28;20467;-72
2023/12/15 15:46:19;;;;;;;;;;;;;;;;;;5077154;28;19948;-72
2023/12/15 15:48:45;;;;;;;;;;;;;;;;;;5076999;28;20361;-72
2023/12/15 15:51:11;;;;;;;;;;;;;;;;;;5076548;28;19920;-71
2023/12/15 15:53:37;;;;;;;;;;;;;;;;;;5076975;28;19908;-72
2023/12/15 15:56:03;;;;;;;;;;;;;;;;;;5077031;28;19954;-72
2023/12/15 15:58:29;;;;;;;;;;;;;;;;;;5076461;28;19909;-72
2023/12/15 16:00:55;;;;;;;;;;;;;;;;;;5076802;28;19912;-72
2023/12/15 16:03:21;;;;;;;;;;;;;;;;;;5076603;28;20004;-72
2023/12/15 16:05:47;;;;;;;;;;;;;;;;;;5076159;28;19909;-72
2023/12/15 16:08:13;;;;;;;;;;;;;;;;;;5075288;28;19908;-72
2023/12/15 16:10:40;;;;;;;;;;;;;;;;;;5076463;28;20357;-72
2023/12/15 16:13:05;;;;;;;;;;;;;;;;;;5074705;28;20436;-72
2023/12/15 16:15:31;;;;;;;;;;;;;;;;;;5076785;28;19995;-72
2023/12/15 16:17:57;;;;;;;;;;;;;;;;;;5076435;28;19916;-72
2023/12/15 16:20:23;;;;;;;;;;;;;;;;;;5074676;28;19909;-71
2023/12/15 16:22:49;;;;;;;;;;;;;;;;;;5076250;28;19915;-71
2023/12/15 16:25:15;;;;;;;;;;;;;;;;;;5075017;28;19913;-71
2023/12/15 16:27:41;;;;;;;;;;;;;;;;;;5073916;28;19908;-71
2023/12/15 16:30:07;;;;;;;;;;;;;;;;;;5076181;28;20350;-72
2023/12/15 16:32:33;;;;;;;;;;;;;;;;;;5076220;28;20035;-71
2023/12/15 16:34:59;;;;;;;;;;;;;;;;;;5075767;28;19908;-72
2023/12/15 16:37:25;;;;;;;;;;;;;;;;;;5076222;28;19942;-72